Time;durP1;ratioP1;P1;durP2;ratioP2;P2;SDS_P1;SDS_P2;PMS_P1;PMS_P2;Temp;Humidity;BMP_temperature;BMP_pressure;BME280_temperature;BME280_humidity;BME280_pressure;Samples;Min_cycle;Max_cycle;Signal;HPM_P1;HPM_P2
2024/03/08 00:01:24;;;;;;;0.55;0.55;;;;;;;3.46;80.75;99343.00;5033849;28;20040;-58
2024/03/08 00:03:51;;;;;;;0.50;0.50;;;;;;;3.57;80.45;99346.94;5029293;28;20733;-58
2024/03/08 00:06:18;;;;;;;0.50;0.50;;;;;;;3.44;81.04;99338.91;5032683;28;20393;-58
2024/03/08 00:08:45;;;;;;;0.60;0.60;;;;;;;3.35;81.40;99342.72;5025060;28;20139;-58
2024/03/08 00:11:12;;;;;;;0.70;0.70;;;;;;;3.33;81.47;99334.16;5029381;28;20053;-59
2024/03/08 00:13:39;;;;;;;0.50;0.50;;;;;;;3.36;82.28;99339.06;5031019;28;20053;-58
2024/03/08 00:16:07;;;;;;;0.60;0.60;;;;;;;3.21;82.84;99334.66;5031042;28;20136;-58
2024/03/08 00:18:36;;;;;;;0.50;0.50;;;;;;;3.24;82.92;99336.09;5025587;28;20049;-58
2024/03/08 00:21:04;;;;;;;0.52;0.52;;;;;;;3.32;82.30;99335.13;5034887;28;20801;-58
2024/03/08 00:23:33;;;;;;;0.60;0.60;;;;;;;3.19;83.90;99331.38;5027834;28;20049;-58
2024/03/08 00:26:04;;;;;;;0.60;0.60;;;;;;;3.20;83.38;99335.69;5037586;28;20049;-58
2024/03/08 00:28:34;;;;;;;0.60;0.60;;;;;;;3.35;81.77;99321.53;5027697;28;20041;-58
2024/03/08 00:31:01;;;;;;;0.60;0.60;;;;;;;3.16;82.30;99328.31;5027940;28;20044;-58
2024/03/08 00:33:28;;;;;;;0.60;0.60;;;;;;;3.30;82.38;99327.41;5024936;28;20056;-58
2024/03/08 00:35:57;;;;;;;0.63;0.63;;;;;;;3.26;82.60;99322.69;5029990;28;20049;-58
2024/03/08 00:38:24;;;;;;;0.60;0.60;;;;;;;3.14;82.46;99327.66;5031797;28;20107;-58
2024/03/08 00:40:51;;;;;;;0.52;0.52;;;;;;;3.03;85.16;99318.44;5028712;28;20052;-58
2024/03/08 00:43:18;;;;;;;0.60;0.60;;;;;;;3.05;84.44;99323.53;5035513;28;20041;-59
2024/03/08 00:45:45;;;;;;;0.50;0.50;;;;;;;3.04;83.71;99322.69;5032431;28;20139;-59
2024/03/08 00:48:14;;;;;;;0.50;0.50;;;;;;;3.11;83.32;99320.94;5037253;28;20573;-58
2024/03/08 00:50:41;;;;;;;0.57;0.57;;;;;;;3.09;83.43;99317.66;5039042;28;20530;-58
2024/03/08 00:53:11;;;;;;;0.60;0.60;;;;;;;3.08;83.79;99321.31;5035079;28;20053;-57
2024/03/08 00:55:39;;;;;;;0.60;0.60;;;;;;;2.88;84.97;99315.03;5037476;28;20500;-58
2024/03/08 00:58:09;;;;;;;0.52;0.52;;;;;;;2.78;85.66;99323.31;5035202;28;20043;-59
2024/03/08 01:00:39;;;;;;;0.60;0.60;;;;;;;2.74;86.47;99314.91;5031447;28;20854;-58
2024/03/08 01:03:06;;;;;;;0.60;0.60;;;;;;;2.72;86.45;99316.94;5044254;28;20134;-58
2024/03/08 01:05:35;;;;;;;0.60;0.60;;;;;;;2.59;86.45;99306.22;5039502;28;20068;-58
2024/03/08 01:08:02;;;;;;;0.50;0.50;;;;;;;2.59;87.49;99303.56;5039081;28;20120;-58
2024/03/08 01:10:31;;;;;;;0.50;0.50;;;;;;;2.65;88.04;99299.38;5038530;28;20761;-58
2024/03/08 01:12:59;;;;;;;0.65;0.65;;;;;;;2.79;86.16;99290.50;5044175;28;20049;-58
2024/03/08 01:15:26;;;;;;;0.50;0.50;;;;;;;2.59;86.95;99296.44;5043289;28;20730;-58
2024/03/08 01:17:54;;;;;;;0.60;0.60;;;;;;;2.63;86.36;99291.59;5037196;28;20073;-58
2024/03/08 01:20:21;;;;;;;0.70;0.70;;;;;;;2.71;85.56;99283.53;5032702;28;20697;-58
2024/03/08 01:22:48;;;;;;;0.60;0.60;;;;;;;2.53;86.44;99280.53;5047753;28;20049;-57
2024/03/08 01:25:15;;;;;;;0.60;0.60;;;;;;;2.63;86.23;99275.72;5033148;28;20095;-58
2024/03/08 01:27:45;;;;;;;0.65;0.65;;;;;;;2.55;86.98;99286.44;5025177;28;20049;-58
2024/03/08 01:30:13;;;;;;;0.60;0.60;;;;;;;2.47;90.74;99275.97;5036637;28;20045;-57
2024/03/08 01:32:40;;;;;;;0.50;0.50;;;;;;;2.53;87.92;99277.88;5034018;28;20041;-58
2024/03/08 01:35:09;;;;;;;0.70;0.70;;;;;;;2.38;87.60;99270.81;5038807;28;20064;-58
2024/03/08 01:37:36;;;;;;;0.60;0.60;;;;;;;2.33;87.35;99270.56;5029067;28;20053;-57
2024/03/08 01:40:03;;;;;;;0.70;0.70;;;;;;;2.35;88.08;99270.38;5030981;28;20129;-57
2024/03/08 01:42:30;;;;;;;0.60;0.60;;;;;;;2.21;88.91;99269.41;5034596;28;20068;-58
2024/03/08 01:44:59;;;;;;;0.45;0.45;;;;;;;2.17;88.93;99260.19;5030715;28;20548;-58
2024/03/08 01:47:26;;;;;;;0.60;0.60;;;;;;;2.15;92.72;99264.88;5035482;28;20087;-58
2024/03/08 01:49:53;;;;;;;0.50;0.50;;;;;;;2.15;91.64;99260.41;5037228;28;20559;-57
2024/03/08 01:52:20;;;;;;;0.60;0.60;;;;;;;2.01;90.56;99255.97;5032335;28;20122;-57
2024/03/08 01:54:48;;;;;;;0.50;0.50;;;;;;;2.07;90.70;99249.09;5036025;28;20124;-58
2024/03/08 01:57:15;;;;;;;0.50;0.50;;;;;;;1.99;91.44;99251.88;5040219;28;20076;-57
2024/03/08 01:59:43;;;;;;;0.60;0.60;;;;;;;2.01;91.58;99249.88;5033679;28;20076;-57
2024/03/08 02:02:11;;;;;;;0.60;0.60;;;;;;;2.13;93.39;99248.38;5040655;28;20614;-57
2024/03/08 02:04:39;;;;;;;0.50;0.50;;;;;;;2.08;92.55;99254.22;5033044;28;20064;-57
2024/03/08 02:07:06;;;;;;;0.60;0.60;;;;;;;2.05;90.57;99253.78;5035572;28;20040;-57
2024/03/08 02:09:34;;;;;;;0.55;0.55;;;;;;;2.04;91.11;99250.31;5031321;28;20091;-57
2024/03/08 02:12:01;;;;;;;0.68;0.68;;;;;;;2.01;89.61;99247.22;5033759;28;20101;-58
2024/03/08 02:14:32;;;;;;;0.65;0.65;;;;;;;2.01;89.96;99234.00;5029904;28;20100;-57
2024/03/08 02:17:01;;;;;;;0.70;0.70;;;;;;;2.03;89.36;99240.75;5038747;28;20053;-57
2024/03/08 02:19:30;;;;;;;0.60;0.60;;;;;;;1.98;92.25;99237.03;5030996;28;20036;-57
2024/03/08 02:21:59;;;;;;;0.60;0.60;;;;;;;1.86;91.09;99245.44;5025480;28;20064;-57
2024/03/08 02:24:27;;;;;;;0.60;0.60;;;;;;;1.92;92.08;99246.50;5037082;28;20064;-57
2024/03/08 02:26:55;;;;;;;0.60;0.60;;;;;;;1.98;92.84;99243.13;5037634;28;20128;-57
2024/03/08 02:29:22;;;;;;;0.60;0.60;;;;;;;1.90;89.68;99230.03;5033678;28;20053;-57
2024/03/08 02:31:49;;;;;;;0.50;0.50;;;;;;;1.90;89.86;99232.69;5038376;28;20044;-56
2024/03/08 02:34:16;;;;;;;0.70;0.70;;;;;;;1.93;92.71;99233.09;5038009;28;20037;-57
2024/03/08 02:36:43;;;;;;;0.60;0.60;;;;;;;1.84;91.10;99223.66;5038583;28;20771;-57
2024/03/08 02:39:11;;;;;;;0.60;0.60;;;;;;;1.93;88.69;99214.59;5032125;28;20208;-57
2024/03/08 02:41:38;;;;;;;0.70;0.70;;;;;;;1.85;89.91;99225.31;5031956;28;20049;-58
2024/03/08 02:44:07;;;;;;;0.45;0.45;;;;;;;1.91;88.69;99216.63;5035663;28;20605;-56
2024/03/08 02:46:35;;;;;;;0.70;0.70;;;;;;;1.98;88.85;99214.06;5027174;28;20042;-57
2024/03/08 02:49:04;;;;;;;0.70;0.70;;;;;;;1.93;89.67;99204.03;5027641;28;20051;-57
2024/03/08 02:51:35;;;;;;;0.47;0.47;;;;;;;1.85;89.00;99212.09;5025469;28;20100;-57
2024/03/08 02:54:05;;;;;;;0.70;0.70;;;;;;;1.79;90.21;99202.25;5033908;28;20044;-57
2024/03/08 02:56:35;;;;;;;0.50;0.50;;;;;;;1.80;90.17;99201.25;5031043;28;20049;-57
2024/03/08 02:59:02;;;;;;;0.60;0.60;;;;;;;1.75;90.03;99206.28;5036566;28;20036;-57
2024/03/08 03:01:29;;;;;;;0.70;0.70;;;;;;;1.77;89.76;99203.44;5039307;28;20124;-58
2024/03/08 03:03:56;;;;;;;0.50;0.50;;;;;;;1.81;89.91;99200.25;5035195;28;20046;-58
2024/03/08 03:06:27;;;;;;;0.60;0.60;;;;;;;1.79;90.51;99207.53;5034492;28;20547;-58
2024/03/08 03:08:57;;;;;;;0.60;0.60;;;;;;;1.88;89.40;99200.31;5031981;28;20136;-57
2024/03/08 03:11:24;;;;;;;0.70;0.70;;;;;;;1.83;89.32;99203.53;5026938;28;20041;-57
2024/03/08 03:13:52;;;;;;;0.65;0.65;;;;;;;1.79;89.81;99199.59;5029860;28;20044;-58
2024/03/08 03:16:20;;;;;;;0.60;0.60;;;;;;;1.83;89.66;99200.88;5040877;28;20118;-58
2024/03/08 03:18:47;;;;;;;0.60;0.60;;;;;;;1.79;89.43;99193.50;5028429;28;20056;-58
2024/03/08 03:21:15;;;;;;;0.68;0.68;;;;;;;1.77;89.49;99195.50;5022556;28;20049;-58
2024/03/08 03:23:42;;;;;;;0.65;0.65;;;;;;;1.86;89.50;99189.09;5029716;28;20072;-57
2024/03/08 03:26:11;;;;;;;0.60;0.60;;;;;;;1.76;90.51;99188.59;5037591;28;20852;-58
2024/03/08 03:28:39;;;;;;;0.60;0.60;;;;;;;1.70;90.84;99193.63;5023630;28;20049;-58
2024/03/08 03:31:08;;;;;;;0.60;0.60;;;;;;;1.89;89.89;99184.25;5034420;28;20503;-58
2024/03/08 03:33:36;;;;;;;0.60;0.60;;;;;;;1.77;90.28;99184.94;5034246;28;20045;-57
2024/03/08 03:36:05;;;;;;;0.60;0.60;;;;;;;1.69;89.99;99183.22;5031244;28;20048;-58
2024/03/08 03:38:32;;;;;;;0.60;0.60;;;;;;;1.73;90.99;99184.50;5034820;28;20514;-58
2024/03/08 03:41:06;;;;;;;0.70;0.70;;;;;;;1.82;94.19;99178.09;5032907;28;20048;-56
2024/03/08 03:43:33;;;;;;;0.60;0.60;;;;;;;1.75;91.71;99174.56;5033805;28;20049;-57
2024/03/08 03:46:01;;;;;;;0.70;0.70;;;;;;;1.67;92.14;99174.66;5029389;28;20042;-58
2024/03/08 03:48:30;;;;;;;0.70;0.70;;;;;;;1.56;90.84;99175.16;5026039;28;20045;-58
2024/03/08 03:50:57;;;;;;;0.60;0.60;;;;;;;1.67;91.51;99169.38;5034463;28;20083;-58
2024/03/08 03:53:25;;;;;;;0.65;0.65;;;;;;;1.81;91.30;99171.16;5043537;28;20052;-57
2024/03/08 03:55:52;;;;;;;0.70;0.70;;;;;;;1.72;91.74;99172.28;5024693;28;20076;-58
2024/03/08 03:58:22;;;;;;;0.70;0.70;;;;;;;1.66;91.19;99168.56;5028390;28;20055;-58
2024/03/08 04:00:49;;;;;;;0.57;0.57;;;;;;;1.84;89.77;99165.50;5032871;28;20049;-56
2024/03/08 04:03:17;;;;;;;0.70;0.70;;;;;;;1.79;90.19;99162.59;5029442;28;20037;-58
2024/03/08 04:05:47;;;;;;;0.68;0.68;;;;;;;1.79;90.29;99162.59;5029469;28;20040;-58
2024/03/08 04:08:14;;;;;;;0.68;0.68;;;;;;;1.74;90.66;99151.78;5021646;28;20300;-58
2024/03/08 04:10:41;;;;;;;0.70;0.70;;;;;;;1.80;91.16;99164.25;5025363;28;20041;-57
2024/03/08 04:13:09;;;;;;;0.75;0.75;;;;;;;1.72;92.33;99153.78;5034185;28;20068;-57
2024/03/08 04:15:37;;;;;;;0.52;0.52;;;;;;;1.63;92.65;99157.56;5028730;28;20160;-58
2024/03/08 04:18:05;;;;;;;0.55;0.55;;;;;;;1.67;91.85;99159.66;5029008;28;20099;-58
2024/03/08 04:20:32;;;;;;;0.60;0.60;;;;;;;1.78;91.40;99155.69;5025660;28;20846;-57
2024/03/08 04:23:00;;;;;;;0.65;0.65;;;;;;;1.43;92.18;99150.22;5032037;28;20174;-58
2024/03/08 04:25:27;;;;;;;0.70;0.70;;;;;;;1.04;95.15;99156.63;5025437;28;20044;-58
2024/03/08 04:27:54;;;;;;;0.70;0.70;;;;;;;0.76;98.08;99143.25;5032500;28;20060;-58
2024/03/08 04:30:22;;;;;;;0.80;0.80;;;;;;;0.62;100.00;99144.91;5035490;28;20124;-57
2024/03/08 04:32:49;;;;;;;0.80;0.80;;;;;;;0.43;100.00;99154.13;5028952;28;20132;-58
2024/03/08 04:35:16;;;;;;;0.52;0.52;;;;;;;0.45;100.00;99151.31;5027337;28;20411;-58
2024/03/08 04:37:45;;;;;;;0.70;0.70;;;;;;;0.46;100.00;99146.88;5029663;28;20161;-58
2024/03/08 04:40:13;;;;;;;0.55;0.55;;;;;;;0.42;100.00;99149.03;5026102;28;20037;-58
2024/03/08 04:42:40;;;;;;;0.77;0.77;;;;;;;0.50;100.00;99151.59;5028634;28;20049;-58
2024/03/08 04:45:10;;;;;;;0.60;0.60;;;;;;;0.68;100.00;99142.53;5031559;28;20033;-58
2024/03/08 04:47:37;;;;;;;0.80;0.80;;;;;;;0.57;100.00;99149.84;5030946;28;20045;-58
2024/03/08 04:50:05;;;;;;;0.60;0.60;;;;;;;0.41;100.00;99150.03;5029650;28;20048;-57
2024/03/08 04:52:32;;;;;;;0.70;0.70;;;;;;;0.28;100.00;99144.56;5028652;28;20077;-57
2024/03/08 04:54:59;;;;;;;0.70;0.70;;;;;;;0.08;100.00;99145.03;5034739;28;20072;-57
2024/03/08 04:57:28;;;;;;;0.75;0.75;;;;;;;-0.03;100.00;99142.81;5027397;28;20793;-57
2024/03/08 04:59:55;;;;;;;0.70;0.70;;;;;;;0.15;100.00;99138.06;5028268;28;20100;-58
2024/03/08 05:02:22;;;;;;;0.63;0.63;;;;;;;0.11;100.00;99138.59;5037473;28;20048;-57
2024/03/08 05:04:49;;;;;;;0.80;0.80;;;;;;;0.18;100.00;99136.88;5034316;28;20053;-57
2024/03/08 05:07:16;;;;;;;0.70;0.70;;;;;;;0.18;100.00;99132.44;5045644;28;20564;-57
2024/03/08 05:09:51;;;;;;;0.77;0.77;;;;;;;0.18;100.00;99127.16;5028949;28;20076;-58
2024/03/08 05:12:18;;;;;;;0.73;0.73;;;;;;;-0.09;100.00;99128.53;5032412;28;20496;-57
2024/03/08 05:14:49;;;;;;;0.80;0.80;;;;;;;0.07;100.00;99130.19;5037038;28;20795;-57
2024/03/08 05:17:16;;;;;;;0.70;0.70;;;;;;;0.05;100.00;99131.38;5029258;28;20487;-57
2024/03/08 05:19:43;;;;;;;0.80;0.80;;;;;;;-0.06;100.00;99130.78;5026085;28;20130;-57
2024/03/08 05:22:10;;;;;;;0.80;0.80;;;;;;;0.03;100.00;99128.94;5029932;28;20150;-58
2024/03/08 05:24:38;;;;;;;0.60;0.60;;;;;;;-0.25;100.00;99126.00;5027761;28;20091;-57
2024/03/08 05:27:06;;;;;;;0.60;0.60;;;;;;;-0.13;100.00;99132.50;5028904;28;20052;-57
2024/03/08 05:29:33;;;;;;;0.70;0.70;;;;;;;-0.20;100.00;99126.31;5027242;28;20049;-57
2024/03/08 05:32:02;;;;;;;0.70;0.70;;;;;;;-0.25;100.00;99128.63;5029289;28;20038;-57
2024/03/08 05:34:29;;;;;;;0.80;0.80;;;;;;;-0.23;100.00;99135.34;5031867;28;20558;-57
2024/03/08 05:36:58;;;;;;;0.90;0.90;;;;;;;-0.20;100.00;99122.84;5029271;28;20128;-58
2024/03/08 05:39:24;;;;;;;0.70;0.70;;;;;;;-0.08;100.00;99124.88;5031532;28;20037;-57
2024/03/08 05:41:52;;;;;;;0.80;0.80;;;;;;;-0.19;100.00;99124.50;5031949;28;20048;-57
2024/03/08 05:44:19;;;;;;;0.80;0.80;;;;;;;-0.13;100.00;99121.13;5031993;28;20618;-57
2024/03/08 05:46:46;;;;;;;0.80;0.80;;;;;;;0.02;100.00;99115.94;5033819;28;20061;-57
2024/03/08 05:49:14;;;;;;;0.90;0.90;;;;;;;0.21;100.00;99116.25;5030979;28;20616;-57
2024/03/08 05:51:41;;;;;;;0.70;0.70;;;;;;;0.15;100.00;99116.97;5034678;28;20061;-59
2024/03/08 05:54:10;;;;;;;0.63;0.63;;;;;;;0.23;100.00;99115.28;5030643;28;20038;-57
2024/03/08 05:56:37;;;;;;;0.80;0.80;;;;;;;0.19;100.00;99118.25;5033517;28;20630;-57
2024/03/08 05:59:04;;;;;;;0.70;0.70;;;;;;;0.04;100.00;99109.47;5026487;28;20049;-58
2024/03/08 06:01:31;;;;;;;0.80;0.80;;;;;;;-0.23;100.00;99114.28;5032259;28;20053;-57
2024/03/08 06:03:58;;;;;;;0.60;0.60;;;;;;;-0.20;100.00;99112.31;5034234;28;20155;-57
2024/03/08 06:06:27;;;;;;;0.70;0.70;;;;;;;0.02;100.00;99106.19;5036490;28;20064;-58
2024/03/08 06:08:56;;;;;;;0.73;0.73;;;;;;;-0.07;100.00;99107.28;5031577;28;20072;-58
2024/03/08 06:11:23;;;;;;;0.70;0.70;;;;;;;-0.08;100.00;99105.63;5035854;28;20168;-58
2024/03/08 06:13:50;;;;;;;0.82;0.82;;;;;;;-0.17;100.00;99096.97;5030728;28;20941;-56
2024/03/08 06:16:18;;;;;;;0.77;0.77;;;;;;;-0.29;100.00;99096.56;5034685;28;20045;-58
2024/03/08 06:18:46;;;;;;;0.70;0.70;;;;;;;-0.46;100.00;99100.28;5035497;28;20048;-58
2024/03/08 06:21:13;;;;;;;0.80;0.80;;;;;;;-0.38;100.00;99100.25;5027274;28;20068;-58
2024/03/08 06:23:42;;;;;;;0.80;0.80;;;;;;;-0.19;100.00;99092.88;5030710;28;20041;-58
2024/03/08 06:26:09;;;;;;;0.75;0.75;;;;;;;-0.37;100.00;99095.81;5028294;28;20138;-57
2024/03/08 06:28:36;;;;;;;0.75;0.75;;;;;;;-0.18;100.00;99097.13;5032603;28;20052;-59
2024/03/08 06:31:04;;;;;;;0.70;0.70;;;;;;;0.05;100.00;99100.59;5035176;28;20041;-57
2024/03/08 06:33:32;;;;;;;0.80;0.80;;;;;;;0.43;100.00;99097.94;5034107;28;20478;-58
2024/03/08 06:35:59;;;;;;;0.88;0.88;;;;;;;0.83;100.00;99098.50;5033290;28;20049;-59
2024/03/08 06:38:26;;;;;;;0.90;0.90;;;;;;;1.26;100.00;99104.72;5038574;28;20524;-57
2024/03/08 06:40:55;;;;;;;0.80;0.80;;;;;;;2.06;92.35;99096.78;5018177;28;20853;-58
2024/03/08 06:43:24;;;;;;;0.70;0.70;;;;;;;2.61;86.80;99099.63;5029370;28;20045;-59
2024/03/08 06:45:52;;;;;;;0.80;0.80;;;;;;;3.50;80.73;99101.47;5034417;28;20563;-58
2024/03/08 06:48:19;;;;;;;0.70;0.70;;;;;;;3.93;79.16;99094.00;5038673;28;20049;-58
2024/03/08 06:50:46;;;;;;;0.60;0.60;;;;;;;3.27;79.93;99086.72;5026993;28;20037;-58
2024/03/08 06:53:13;;;;;;;0.70;0.70;;;;;;;4.10;76.23;99087.28;5033217;28;20107;-58
2024/03/08 06:55:40;;;;;;;0.60;0.60;;;;;;;4.10;75.71;99097.91;5029683;28;20770;-58
2024/03/08 06:58:10;;;;;;;0.60;0.60;;;;;;;4.47;73.46;99098.31;5032210;28;20045;-59
2024/03/08 07:00:37;;;;;;;0.60;0.60;;;;;;;4.18;74.65;99096.06;5032229;28;20127;-59
2024/03/08 07:03:06;;;;;;;0.60;0.60;;;;;;;4.44;73.39;99101.38;5032683;28;20048;-58
2024/03/08 07:05:33;;;;;;;0.70;0.70;;;;;;;4.97;70.35;99103.91;5029160;28;20048;-58
2024/03/08 07:08:00;;;;;;;0.60;0.60;;;;;;;5.13;68.60;99099.97;5031063;28;20045;-58
2024/03/08 07:10:28;;;;;;;0.50;0.50;;;;;;;5.49;66.72;99103.09;5031659;28;20133;-59
2024/03/08 07:12:56;;;;;;;0.35;0.35;;;;;;;5.47;67.25;99102.50;5035410;28;20659;-57
2024/03/08 07:15:25;;;;;;;0.65;0.65;;;;;;;6.21;64.24;99098.34;5031870;28;20091;-58
2024/03/08 07:17:59;;;;;;;0.55;0.55;;;;;;;6.20;63.98;99091.41;5033649;28;20049;-58
2024/03/08 07:20:28;;;;;;;0.60;0.60;;;;;;;6.40;64.13;99094.72;5033876;28;20096;-58
2024/03/08 07:22:55;;;;;;;0.50;0.50;;;;;;;6.46;63.36;99090.34;5040542;28;20045;-58
2024/03/08 07:25:23;;;;;;;0.40;0.40;;;;;;;6.76;62.68;99084.34;5037322;28;20401;-58
2024/03/08 07:27:51;;;;;;;0.50;0.50;;;;;;;6.80;62.30;99080.19;5034961;28;20055;-58
2024/03/08 07:33:02;;;;;;;0.38;0.38;;;;;;;7.25;60.44;99077.22;5033788;28;20045;-58
2024/03/08 07:35:29;;;;;;;0.50;0.50;;;;;;;6.45;62.56;99078.91;5036378;28;20128;-58
2024/03/08 07:37:56;;;;;;;0.40;0.40;;;;;;;5.55;65.03;99080.97;5034371;28;20487;-58
2024/03/08 07:40:23;;;;;;;0.43;0.43;;;;;;;6.16;67.21;99069.72;5028979;28;20134;-58
2024/03/08 07:42:50;;;;;;;0.43;0.43;;;;;;;6.75;64.04;99062.22;5037859;28;20060;-58
2024/03/08 07:45:17;;;;;;;0.40;0.40;;;;;;;7.05;62.63;99070.28;5033834;28;20091;-57
2024/03/08 07:47:44;;;;;;;0.43;0.43;;;;;;;7.40;60.45;99066.97;5031390;28;20043;-58
2024/03/08 07:50:16;;;;;;;0.43;0.43;;;;;;;6.92;64.13;99067.78;5031572;28;20041;-58
2024/03/08 07:52:43;;;;;;;0.50;0.50;;;;;;;8.03;59.67;99067.50;5023999;28;20927;-58
2024/03/08 07:55:12;;;;;;;0.40;0.40;;;;;;;6.92;63.16;99067.78;5033119;28;20045;-58
2024/03/08 07:57:40;;;;;;;0.50;0.50;;;;;;;6.92;64.77;99057.13;5030537;28;20052;-58
2024/03/08 08:00:08;;;;;;;0.40;0.40;;;;;;;7.59;61.17;99058.91;5035184;28;20114;-58
2024/03/08 08:02:36;;;;;;;0.40;0.40;;;;;;;6.93;60.93;99053.41;5034478;28;20064;-58
2024/03/08 08:05:04;;;;;;;0.50;0.50;;;;;;;7.05;61.12;99046.28;5039129;28;20044;-58
2024/03/08 08:07:33;;;;;;;0.40;0.40;;;;;;;5.83;66.24;99041.50;5026021;28;20033;-58
2024/03/08 08:10:00;;;;;;;0.50;0.50;;;;;;;6.95;63.73;99040.69;5031000;28;20643;-58
2024/03/08 08:12:28;;;;;;;0.50;0.50;;;;;;;6.51;65.64;99036.44;5029199;28;20159;-58
2024/03/08 08:14:56;;;;;;;0.50;0.50;;;;;;;7.00;63.33;99030.16;5025452;28;20045;-58
2024/03/08 08:17:23;;;;;;;0.50;0.50;;;;;;;6.44;63.41;99032.03;5026079;28;20041;-57
2024/03/08 08:19:51;;;;;;;0.50;0.50;;;;;;;7.03;63.57;99032.38;5036772;28;20069;-58
2024/03/08 08:22:19;;;;;;;0.50;0.50;;;;;;;7.30;62.00;99027.50;5032769;28;20045;-57
2024/03/08 08:24:49;;;;;;;0.50;0.50;;;;;;;7.35;61.20;99024.19;5027510;28;20044;-58
2024/03/08 08:27:16;;;;;;;0.52;0.52;;;;;;;6.74;64.18;99022.47;5020606;28;20056;-56
2024/03/08 08:29:46;;;;;;;0.52;0.52;;;;;;;6.50;66.17;99011.69;5025883;28;20053;-57
2024/03/08 08:32:13;;;;;;;0.47;0.47;;;;;;;6.98;64.18;99007.44;5038073;28;20143;-58
2024/03/08 08:34:41;;;;;;;0.40;0.40;;;;;;;6.23;67.00;99017.25;5031868;28;20057;-58
2024/03/08 08:37:09;;;;;;;0.50;0.50;;;;;;;7.15;62.18;99015.63;5027777;28;20129;-58
2024/03/08 08:39:37;;;;;;;0.50;0.50;;;;;;;7.26;60.78;99014.84;5030337;28;20081;-58
2024/03/08 08:42:09;;;;;;;0.60;0.60;;;;;;;6.60;64.26;99009.31;5026934;28;20049;-58
2024/03/08 08:44:36;;;;;;;0.50;0.50;;;;;;;6.11;66.27;99013.69;5039257;28;20467;-58
2024/03/08 08:47:04;;;;;;;0.60;0.60;;;;;;;4.94;72.38;99014.03;5034066;28;20041;-57
2024/03/08 08:49:31;;;;;;;0.40;0.40;;;;;;;6.98;64.41;99010.91;5023785;28;20116;-58
2024/03/08 08:51:59;;;;;;;0.60;0.60;;;;;;;7.35;63.89;99002.84;5028919;28;20088;-58
2024/03/08 08:54:31;;;;;;;0.50;0.50;;;;;;;7.74;61.21;99011.31;5024078;28;20041;-58
2024/03/08 08:56:58;;;;;;;0.60;0.60;;;;;;;7.72;59.92;99003.53;5033774;28;20648;-60
2024/03/08 08:59:26;;;;;;;0.50;0.50;;;;;;;7.35;61.62;99000.19;5027941;28;20118;-57
2024/03/08 09:01:54;;;;;;;0.40;0.40;;;;;;;7.69;60.11;98997.84;5033372;28;20144;-57
2024/03/08 09:04:22;;;;;;;0.40;0.40;;;;;;;7.03;63.99;98992.41;5031627;28;20437;-56
2024/03/08 09:06:49;;;;;;;0.52;0.52;;;;;;;7.04;64.50;98985.22;5028154;28;20053;-57
2024/03/08 09:09:17;;;;;;;0.50;0.50;;;;;;;6.61;66.32;98986.97;5034115;28;20717;-57
2024/03/08 09:11:46;;;;;;;0.50;0.50;;;;;;;7.54;60.48;98977.75;5038998;28;20108;-57
2024/03/08 09:14:14;;;;;;;0.50;0.50;;;;;;;7.92;60.24;98981.06;5038721;28;20041;-57
2024/03/08 09:16:42;;;;;;;0.50;0.50;;;;;;;8.93;57.17;98975.47;5035907;28;20056;-58
2024/03/08 09:19:10;;;;;;;0.40;0.40;;;;;;;9.16;55.40;98971.91;5028931;28;20046;-57
2024/03/08 09:21:37;;;;;;;0.30;0.30;;;;;;;8.96;54.89;98973.16;5031989;28;20048;-57
2024/03/08 09:24:05;;;;;;;0.43;0.43;;;;;;;9.10;55.82;98972.88;5036962;28;20052;-58
2024/03/08 09:26:33;;;;;;;0.40;0.40;;;;;;;8.81;56.37;98973.69;5027398;28;20147;-57
2024/03/08 09:29:00;;;;;;;0.30;0.30;;;;;;;9.86;53.57;98968.00;5033204;28;20037;-58
2024/03/08 09:31:27;;;;;;;0.30;0.30;;;;;;;7.77;56.68;98962.81;5030869;28;20478;-58
2024/03/08 09:33:55;;;;;;;0.40;0.40;;;;;;;7.96;60.67;98956.34;5042586;28;20096;-56
2024/03/08 09:36:23;;;;;;;0.40;0.40;;;;;;;8.32;59.07;98965.13;5038215;28;20050;-57
2024/03/08 09:38:50;;;;;;;0.50;0.50;;;;;;;8.38;58.83;98947.34;5031923;28;20055;-57
2024/03/08 09:41:17;;;;;;;0.40;0.40;;;;;;;9.37;55.48;98943.69;5030727;28;20037;-57
2024/03/08 09:43:45;;;;;;;0.30;0.30;;;;;;;9.36;55.32;98934.00;5039913;28;21184;-57
2024/03/08 09:46:26;;;;;;;0.40;0.40;;;;;;;9.14;54.27;98926.72;5040667;28;20407;-58
2024/03/08 09:49:20;;;;;;;0.40;0.40;;;;;;;9.90;53.41;98923.66;5029886;28;20100;-58
2024/03/08 09:51:56;;;;;;;0.32;0.32;;;;;;;9.10;55.03;98922.06;5036551;28;20040;-57
2024/03/08 09:54:26;;;;;;;0.40;0.40;;;;;;;8.18;55.69;98919.16;5033798;28;20061;-57
2024/03/08 09:56:53;;;;;;;0.40;0.40;;;;;;;7.77;56.85;98923.59;5033793;28;20040;-58
2024/03/08 10:02:21;;;;;;;0.40;0.40;;;;;;;8.19;57.60;98912.81;5074171;27;20410;-57
2024/03/08 10:04:48;;;;;;;0.50;0.50;;;;;;;9.34;55.01;98902.19;5068899;28;22473;-59
2024/03/08 10:07:16;;;;;;;0.30;0.30;;;;;;;7.97;55.34;98904.59;5065805;28;20487;-59
2024/03/08 10:09:49;;;;;;;0.40;0.40;;;;;;;8.93;54.64;98895.31;5067398;28;20047;-58
2024/03/08 10:12:16;;;;;;;0.40;0.40;;;;;;;9.15;52.93;98882.88;5069753;28;20048;-58
2024/03/08 10:14:44;;;;;;;0.40;0.40;;;;;;;9.44;52.51;98883.63;5062191;28;20041;-56
2024/03/08 10:17:11;;;;;;;0.30;0.30;;;;;;;7.48;55.96;98884.50;5067210;28;20083;-58
2024/03/08 10:19:39;;;;;;;0.50;0.50;;;;;;;8.84;54.45;98882.34;5065518;28;20072;-58
2024/03/08 10:22:06;;;;;;;0.40;0.40;;;;;;;8.59;52.66;98884.53;5071642;28;20044;-57
2024/03/08 10:24:35;;;;;;;0.50;0.50;;;;;;;8.03;54.75;98878.00;5068372;28;20489;-58
2024/03/08 10:27:04;;;;;;;0.50;0.50;;;;;;;8.75;53.62;98874.94;5064600;28;20110;-58
2024/03/08 10:29:32;;;;;;;0.40;0.40;;;;;;;8.77;52.69;98875.50;5062303;28;20044;-58
2024/03/08 10:31:59;;;;;;;0.40;0.40;;;;;;;8.13;51.91;98872.88;5073091;28;20047;-58
2024/03/08 10:34:26;;;;;;;0.45;0.45;;;;;;;8.01;53.58;98856.88;5071837;28;20072;-58
2024/03/08 10:36:55;;;;;;;0.50;0.50;;;;;;;9.01;51.92;98857.47;5065589;28;20044;-57
2024/03/08 10:39:23;;;;;;;0.40;0.40;;;;;;;8.30;52.97;98865.75;5069734;28;20136;-57
2024/03/08 10:41:53;;;;;;;0.50;0.50;;;;;;;8.13;52.37;98864.88;5068850;28;20553;-58
2024/03/08 10:44:27;;;;;;;0.40;0.40;;;;;;;7.55;53.23;98870.00;5065285;28;20065;-57
2024/03/08 10:47:02;;;;;;;0.50;0.50;;;;;;;8.54;52.55;98861.19;5070375;28;20040;-56
2024/03/08 10:49:34;;;;;;;0.50;0.50;;;;;;;9.30;50.29;98852.88;5065427;28;20048;-58
2024/03/08 10:52:05;;;;;;;0.40;0.40;;;;;;;8.66;52.20;98855.78;5064588;28;20044;-58
2024/03/08 10:54:35;;;;;;;0.40;0.40;;;;;;;8.58;52.25;98840.16;5068646;28;20040;-57
2024/03/08 10:57:04;;;;;;;0.35;0.35;;;;;;;9.32;51.29;98841.97;5068646;28;20131;-57
2024/03/08 10:59:31;;;;;;;0.40;0.40;;;;;;;8.38;50.18;98849.34;5065182;28;20048;-59
2024/03/08 11:01:58;;;;;;;0.40;0.40;;;;;;;8.45;50.82;98843.91;5073227;28;20044;-58
2024/03/08 11:04:25;;;;;;;0.50;0.50;;;;;;;8.69;50.51;98831.28;5070656;28;20044;-58
2024/03/08 11:06:54;;;;;;;0.38;0.38;;;;;;;8.16;51.11;98832.34;5073174;28;20090;-58
2024/03/08 11:09:30;;;;;;;0.40;0.40;;;;;;;8.03;52.12;98843.31;5075448;28;20630;-56
2024/03/08 11:12:25;;;;;;;0.40;0.40;;;;;;;8.06;51.92;98824.94;5062966;28;20036;-58
2024/03/08 11:14:52;;;;;;;0.40;0.40;;;;;;;8.58;51.92;98819.59;5048429;28;20037;-58
2024/03/08 11:17:22;;;;;;;0.40;0.40;;;;;;;8.41;51.94;98821.41;5053716;28;20044;-58
2024/03/08 11:19:51;;;;;;;0.40;0.40;;;;;;;8.54;51.32;98814.97;5054819;28;20041;-57
2024/03/08 11:22:23;;;;;;;0.40;0.40;;;;;;;8.26;52.52;98815.72;5054524;28;20122;-57
2024/03/08 11:24:52;;;;;;;0.40;0.40;;;;;;;8.93;51.52;98810.56;5054439;28;20045;-58
2024/03/08 11:27:20;;;;;;;0.50;0.50;;;;;;;9.52;49.36;98799.47;5061762;28;20059;-57
2024/03/08 11:30:00;;;;;;;0.50;0.50;;;;;;;8.61;51.20;98811.13;5052370;28;20539;-59
2024/03/08 11:32:29;;;;;;;0.38;0.38;;;;;;;8.48;51.60;98798.03;5053082;28;20045;-58
2024/03/08 11:34:56;;;;;;;0.40;0.40;;;;;;;8.55;51.01;98795.22;5051686;28;20152;-58
2024/03/08 11:37:23;;;;;;;0.30;0.30;;;;;;;8.14;52.15;98799.78;5058879;28;20044;-58
2024/03/08 11:39:52;;;;;;;0.40;0.40;;;;;;;8.92;51.39;98792.13;5049230;28;20590;-58
2024/03/08 11:42:19;;;;;;;0.40;0.40;;;;;;;8.24;51.96;98780.44;5046326;28;20087;-57
2024/03/08 11:44:47;;;;;;;0.40;0.40;;;;;;;8.71;51.34;98775.75;5060359;28;20095;-58
2024/03/08 11:47:16;;;;;;;0.50;0.50;;;;;;;8.23;52.39;98786.84;5058088;28;20041;-57
2024/03/08 11:49:44;;;;;;;0.40;0.40;;;;;;;8.84;51.12;98780.78;5059184;28;20041;-58